Markham, Minnesota
Current Conditions -  °F | °C
As of 11:52 AM on Monday 22 Dec 2014 (Local Time) from KEVM Reporting Station
Light Rain Light Rain  
Wind Chill: 27°   Ceiling: 500
Heat Index: 34°   Visibility: 5mi
Dew Point: 34°   Wind: 8mph
Humidity: 100%   Direction: 130°SE
Pressure: 29.66"   Gusts: NA
Location:  47.3034°N, 92.2081°W
Report Text: KEVM 221752Z AUTO 13007KT 5SM -RA OVC005 01/01 A2966 RMK AO2
Loading
Personal Weather Stations






























Interactive Weather Map New forecast layout! Learn more

10-Day Weather Forecast

Advertisements
Track Severe Weather on mobile